createdAt,value
2018-07-22T00:00:23.779Z,99124.00
2018-07-22T00:02:52.734Z,99121.00
2018-07-22T00:05:21.699Z,99122.00
2018-07-22T00:07:50.650Z,99119.00
2018-07-22T00:10:26.529Z,99119.00
2018-07-22T00:12:55.579Z,99121.00
2018-07-22T00:15:24.548Z,99116.00
2018-07-22T00:17:53.506Z,99110.00
2018-07-22T00:20:22.479Z,99106.00
2018-07-22T00:22:51.423Z,99103.00
2018-07-22T00:25:20.418Z,99108.00
2018-07-22T00:27:49.379Z,99114.00
2018-07-22T00:30:18.343Z,99109.00
2018-07-22T00:32:47.290Z,99112.00
2018-07-22T00:35:16.254Z,99107.00
2018-07-22T00:37:45.197Z,99105.00
2018-07-22T00:40:14.150Z,99113.00
2018-07-22T00:42:43.099Z,99116.00
2018-07-22T00:45:13.310Z,99120.00
2018-07-22T00:47:43.039Z,99116.00
2018-07-22T00:50:11.999Z,99119.00
2018-07-22T00:52:40.983Z,99116.00
2018-07-22T00:55:09.954Z,99123.00
2018-07-22T00:57:38.904Z,99120.00
2018-07-22T01:00:08.492Z,99123.00
2018-07-22T01:02:37.363Z,99121.00
2018-07-22T01:05:06.938Z,99115.00
2018-07-22T01:07:35.892Z,99113.00
2018-07-22T01:10:04.902Z,99111.00
2018-07-22T01:12:33.854Z,99112.00
2018-07-22T01:15:02.814Z,99115.00
2018-07-22T01:17:31.802Z,99115.00
2018-07-22T01:20:00.746Z,99114.00
2018-07-22T01:22:29.686Z,99115.00
2018-07-22T01:24:58.639Z,99112.00
2018-07-22T01:27:27.591Z,99116.00
2018-07-22T01:29:56.561Z,99115.00
2018-07-22T01:32:25.504Z,99111.00
2018-07-22T01:34:54.462Z,99114.00
2018-07-22T01:37:23.407Z,99119.00
2018-07-22T01:39:52.359Z,99117.00
2018-07-22T01:42:21.306Z,99120.00
2018-07-22T01:44:50.262Z,99123.00
2018-07-22T01:47:19.212Z,99122.00
2018-07-22T01:49:48.176Z,99122.00
2018-07-22T01:52:17.190Z,99124.00
2018-07-22T01:54:46.163Z,99127.00
2018-07-22T01:57:15.107Z,99123.00
2018-07-22T01:59:44.067Z,99130.00
2018-07-22T02:02:13.014Z,99125.00
2018-07-22T02:04:41.979Z,99125.00
2018-07-22T02:07:10.969Z,99124.00
2018-07-22T02:09:39.871Z,99124.00
2018-07-22T02:12:08.914Z,99115.00
2018-07-22T02:14:37.907Z,99119.00
2018-07-22T02:17:06.910Z,99119.00
2018-07-22T02:19:35.851Z,99120.00
2018-07-22T02:22:04.824Z,99114.00
2018-07-22T02:24:33.766Z,99115.00
2018-07-22T02:27:02.740Z,99113.00
2018-07-22T02:29:31.740Z,99113.00
2018-07-22T02:32:00.705Z,99114.00
2018-07-22T02:34:29.659Z,99114.00
2018-07-22T02:36:58.614Z,99109.00
2018-07-22T02:39:27.560Z,99110.00
2018-07-22T02:41:56.507Z,99111.00
2018-07-22T02:44:25.456Z,99113.00
2018-07-22T02:46:54.476Z,99113.00
2018-07-22T02:49:23.427Z,99114.00
2018-07-22T02:51:52.392Z,99117.00
2018-07-22T02:54:21.339Z,99111.00
2018-07-22T02:56:50.329Z,99103.00
2018-07-22T02:59:19.278Z,99110.00
2018-07-22T03:01:48.243Z,99110.00
2018-07-22T03:04:17.200Z,99110.00
2018-07-22T03:06:46.150Z,99110.00
2018-07-22T03:09:15.090Z,99111.00
2018-07-22T03:11:44.038Z,99119.00
2018-07-22T03:14:12.991Z,99117.00
2018-07-22T03:16:42.003Z,99118.00
2018-07-22T03:19:10.950Z,99118.00
2018-07-22T03:21:39.911Z,99117.00
2018-07-22T03:24:08.869Z,99116.00
2018-07-22T03:26:37.842Z,99119.00
2018-07-22T03:29:06.802Z,99113.00
2018-07-22T03:31:35.754Z,99117.00
2018-07-22T03:34:04.707Z,99123.00
2018-07-22T03:36:33.671Z,99123.00
2018-07-22T03:39:02.631Z,99119.00
2018-07-22T03:41:31.594Z,99120.00
2018-07-22T03:44:00.540Z,99118.00
2018-07-22T03:46:29.490Z,99119.00
2018-07-22T03:48:58.434Z,99124.00
2018-07-22T03:51:27.471Z,99130.00
2018-07-22T03:53:56.431Z,99133.00
2018-07-22T03:56:25.390Z,99127.00
2018-07-22T03:58:54.339Z,99132.00
2018-07-22T04:01:23.327Z,99133.00
2018-07-22T04:03:52.273Z,99134.00
2018-07-22T04:06:21.242Z,99132.00
2018-07-22T04:08:50.219Z,99136.00
2018-07-22T04:11:19.190Z,99137.00
2018-07-22T04:13:48.142Z,99134.00
2018-07-22T04:16:17.148Z,99133.00
2018-07-22T04:18:51.396Z,99135.00
2018-07-22T04:21:21.245Z,99137.00
2018-07-22T04:23:50.595Z,99135.00
2018-07-22T04:26:20.195Z,99140.00
2018-07-22T04:28:50.243Z,99142.00
2018-07-22T04:31:19.400Z,99141.00
2018-07-22T04:33:48.380Z,99142.00
2018-07-22T04:36:17.364Z,99147.00
2018-07-22T04:38:46.314Z,99153.00
2018-07-22T04:41:15.313Z,99150.00
2018-07-22T04:43:44.276Z,99154.00
2018-07-22T04:46:13.240Z,99153.00
2018-07-22T04:48:42.235Z,99164.00
2018-07-22T04:51:11.162Z,99161.00
2018-07-22T04:53:40.134Z,99160.00
2018-07-22T04:56:09.086Z,99160.00
2018-07-22T04:58:38.060Z,99159.00
2018-07-22T05:01:07.094Z,99158.00
2018-07-22T05:03:36.045Z,99158.00
2018-07-22T05:06:05.007Z,99155.00
2018-07-22T05:08:33.972Z,99153.00
2018-07-22T05:11:02.927Z,99157.00
2018-07-22T05:13:31.872Z,99160.00
2018-07-22T05:16:00.823Z,99159.00
2018-07-22T05:18:29.776Z,99161.00
2018-07-22T05:20:58.738Z,99159.00
2018-07-22T05:23:27.711Z,99164.00
2018-07-22T05:25:56.666Z,99163.00
2018-07-22T05:28:25.650Z,99170.00
2018-07-22T05:30:54.626Z,99169.00
2018-07-22T05:33:23.583Z,99169.00
2018-07-22T05:35:52.683Z,99178.00
2018-07-22T05:38:21.665Z,99175.00
2018-07-22T05:40:50.614Z,99181.00
2018-07-22T05:43:19.614Z,99181.00
2018-07-22T05:45:48.583Z,99180.00
2018-07-22T05:48:17.571Z,99175.00
2018-07-22T05:50:46.294Z,99171.00
2018-07-22T05:53:15.255Z,99175.00
2018-07-22T05:55:44.210Z,99177.00
2018-07-22T05:58:13.180Z,99183.00
2018-07-22T06:00:42.141Z,99184.00
2018-07-22T06:03:11.106Z,99192.00
2018-07-22T06:05:40.048Z,99200.00
2018-07-22T06:08:09.063Z,99197.00
2018-07-22T06:10:38.032Z,99203.00
2018-07-22T06:13:06.986Z,99210.00
2018-07-22T06:15:35.939Z,99215.00
2018-07-22T06:18:04.902Z,99217.00
2018-07-22T06:20:33.860Z,99221.00
2018-07-22T06:23:02.891Z,99217.00
2018-07-22T06:25:31.856Z,99217.00
2018-07-22T06:28:00.824Z,99221.00
2018-07-22T06:30:29.786Z,99216.00
2018-07-22T06:32:58.751Z,99218.00
2018-07-22T06:35:27.707Z,99216.00
2018-07-22T06:37:56.676Z,99218.00
2018-07-22T06:40:25.635Z,99214.00
2018-07-22T06:42:54.604Z,99215.00
2018-07-22T06:45:23.564Z,99212.00
2018-07-22T06:47:52.536Z,99216.00
2018-07-22T06:50:21.498Z,99211.00
2018-07-22T06:52:50.462Z,99209.00
2018-07-22T06:55:19.423Z,99213.00
2018-07-22T06:57:48.386Z,99211.00
2018-07-22T07:00:17.501Z,99214.00
2018-07-22T07:02:46.472Z,99221.00
2018-07-22T07:05:15.504Z,99220.00
2018-07-22T07:07:44.402Z,99223.00
2018-07-22T07:10:13.352Z,99220.00
2018-07-22T07:12:42.322Z,99223.00
2018-07-22T07:15:11.331Z,99230.00
2018-07-22T07:17:40.436Z,99232.00
2018-07-22T07:20:09.384Z,99232.00
2018-07-22T07:22:38.389Z,99230.00
2018-07-22T07:25:07.955Z,99231.00
2018-07-22T07:27:36.927Z,99224.00
2018-07-22T07:30:05.999Z,99226.00
2018-07-22T07:32:34.962Z,99226.00
2018-07-22T07:35:03.920Z,99226.00
2018-07-22T07:37:32.898Z,99226.00
2018-07-22T07:40:01.859Z,99226.00
2018-07-22T07:42:30.827Z,99226.00
2018-07-22T07:44:59.796Z,99225.00
2018-07-22T07:47:28.751Z,99227.00
2018-07-22T07:49:57.708Z,99229.00
2018-07-22T07:52:26.666Z,99228.00
2018-07-22T07:54:55.632Z,99226.00
2018-07-22T07:57:24.598Z,99229.00
2018-07-22T07:59:54.419Z,99233.00
2018-07-22T08:02:25.742Z,99235.00
2018-07-22T08:04:55.063Z,99236.00
2018-07-22T08:07:24.019Z,99237.00
2018-07-22T08:09:52.967Z,99239.00
2018-07-22T08:12:21.927Z,99240.00
2018-07-22T08:14:50.887Z,99239.00
2018-07-22T08:17:19.849Z,99238.00
2018-07-22T08:19:48.803Z,99231.00
2018-07-22T08:22:17.844Z,99241.00
2018-07-22T08:24:46.823Z,99241.00
2018-07-22T08:27:15.787Z,99230.00
2018-07-22T08:29:44.751Z,99240.00
2018-07-22T08:32:13.699Z,99243.00
2018-07-22T08:34:42.438Z,99242.00
2018-07-22T08:37:11.402Z,99248.00
2018-07-22T08:39:40.387Z,99247.00
2018-07-22T08:42:09.453Z,99245.00
2018-07-22T08:44:38.443Z,99243.00
2018-07-22T08:47:07.395Z,99243.00
2018-07-22T08:49:36.695Z,99234.00
2018-07-22T08:52:05.683Z,99233.00
2018-07-22T08:54:34.647Z,99236.00
2018-07-22T08:57:03.624Z,99232.00
2018-07-22T08:59:32.608Z,99233.00
2018-07-22T09:02:01.588Z,99238.00
2018-07-22T09:04:30.531Z,99236.00
2018-07-22T09:06:59.495Z,99240.00
2018-07-22T09:09:28.446Z,99241.00
2018-07-22T09:11:57.410Z,99244.00
2018-07-22T09:14:26.370Z,99245.00
2018-07-22T09:16:55.333Z,99250.00
2018-07-22T09:19:24.298Z,99246.00
2018-07-22T09:21:53.254Z,99247.00
2018-07-22T09:24:22.232Z,99246.00
2018-07-22T09:26:51.210Z,99245.00
2018-07-22T09:29:20.171Z,99246.00
2018-07-22T09:31:49.135Z,99252.00
2018-07-22T09:34:18.100Z,99248.00
2018-07-22T09:36:47.050Z,99251.00
2018-07-22T09:39:16.015Z,99254.00
2018-07-22T09:41:44.965Z,99259.00
2018-07-22T09:44:13.932Z,99253.00
2018-07-22T09:46:42.982Z,99254.00
2018-07-22T09:49:11.946Z,99252.00
2018-07-22T09:51:40.910Z,99253.00
2018-07-22T09:54:09.872Z,99254.00
2018-07-22T09:56:38.826Z,99256.00
2018-07-22T09:59:07.805Z,99256.00
2018-07-22T10:01:36.881Z,99256.00
2018-07-22T10:04:05.840Z,99253.00
2018-07-22T10:06:34.788Z,99254.00
2018-07-22T10:09:04.531Z,99253.00
2018-07-22T10:11:33.937Z,99247.00
2018-07-22T10:14:02.896Z,99245.00
2018-07-22T10:16:31.856Z,99249.00
2018-07-22T10:19:00.818Z,99246.00
2018-07-22T10:21:29.772Z,99248.00
2018-07-22T10:23:58.751Z,99243.00
2018-07-22T10:26:27.714Z,99238.00
2018-07-22T10:28:56.685Z,99242.00
2018-07-22T10:31:25.615Z,99243.00
2018-07-22T10:33:54.574Z,99236.00
2018-07-22T10:36:23.526Z,99235.00
2018-07-22T10:38:52.503Z,99240.00
2018-07-22T10:41:21.463Z,99232.00
2018-07-22T10:43:50.427Z,99232.00
2018-07-22T10:46:19.371Z,99233.00
2018-07-22T10:48:48.353Z,99230.00
2018-07-22T10:51:17.387Z,99231.00
2018-07-22T10:53:46.430Z,99229.00
2018-07-22T10:56:15.384Z,99230.00
2018-07-22T10:58:44.339Z,99231.00
2018-07-22T11:01:13.291Z,99226.00
2018-07-22T11:03:42.259Z,99227.00
2018-07-22T11:06:11.206Z,99225.00
2018-07-22T11:08:40.162Z,99224.00
2018-07-22T11:11:09.147Z,99224.00
2018-07-22T11:13:38.252Z,99228.00
2018-07-22T11:16:07.237Z,99224.00
2018-07-22T11:18:36.179Z,99224.00
2018-07-22T11:21:05.281Z,99222.00
2018-07-22T11:23:34.175Z,99227.00
2018-07-22T11:26:03.160Z,99224.00
2018-07-22T11:28:32.170Z,99219.00
2018-07-22T11:31:01.091Z,99213.00
2018-07-22T11:33:30.052Z,99215.00
2018-07-22T11:35:59.056Z,99213.00
2018-07-22T11:38:27.984Z,99210.00
2018-07-22T11:40:56.724Z,99211.00
2018-07-22T11:43:25.679Z,99207.00
2018-07-22T11:45:54.635Z,99209.00
2018-07-22T11:48:23.596Z,99209.00
2018-07-22T11:50:52.552Z,99208.00
2018-07-22T11:53:21.519Z,99202.00
2018-07-22T11:55:50.485Z,99201.00
2018-07-22T11:58:26.120Z,99201.00
2018-07-22T12:00:55.082Z,99199.00
2018-07-22T12:03:24.036Z,99201.00
2018-07-22T12:05:53.024Z,99200.00
2018-07-22T12:08:21.947Z,99201.00
2018-07-22T12:10:50.894Z,99195.00
2018-07-22T12:13:19.860Z,99192.00
2018-07-22T12:15:48.858Z,99188.00
2018-07-22T12:18:17.823Z,99186.00
2018-07-22T12:20:46.787Z,99175.00
2018-07-22T12:23:15.741Z,99171.00
2018-07-22T12:25:44.694Z,99172.00
2018-07-22T12:28:13.724Z,99166.00
2018-07-22T12:30:42.630Z,99169.00
2018-07-22T12:33:11.575Z,99168.00
2018-07-22T12:35:40.537Z,99168.00
2018-07-22T12:38:09.575Z,99162.00
2018-07-22T12:40:38.543Z,99163.00
2018-07-22T12:43:07.499Z,99158.00
2018-07-22T12:45:36.480Z,99152.00
2018-07-22T12:48:05.728Z,99150.00
2018-07-22T12:50:34.695Z,99155.00
2018-07-22T12:53:03.747Z,99152.00
2018-07-22T12:55:32.732Z,99139.00
2018-07-22T12:58:01.700Z,99141.00
2018-07-22T13:00:30.646Z,99138.00
2018-07-22T13:02:59.607Z,99143.00
2018-07-22T13:05:28.574Z,99142.00
2018-07-22T13:07:57.527Z,99145.00
2018-07-22T13:10:26.492Z,99143.00
2018-07-22T13:14:52.912Z,99142.00
2018-07-22T13:17:22.783Z,99147.00
2018-07-22T13:19:52.679Z,99147.00
2018-07-22T13:22:22.561Z,99149.00
2018-07-22T13:24:52.435Z,99144.00
2018-07-22T13:27:22.314Z,99149.00
2018-07-22T13:29:52.194Z,99144.00
2018-07-22T13:32:22.159Z,99144.00
2018-07-22T13:34:52.111Z,99147.00
2018-07-22T13:37:22.272Z,99148.00
2018-07-22T13:39:52.162Z,99149.00
2018-07-22T13:42:22.039Z,99153.00
2018-07-22T13:44:51.919Z,99151.00
2018-07-22T13:47:21.835Z,99158.00
2018-07-22T13:49:51.708Z,99149.00
2018-07-22T13:52:21.607Z,99143.00
2018-07-22T13:54:51.482Z,99145.00
2018-07-22T13:57:21.342Z,99149.00
2018-07-22T13:59:51.197Z,99150.00
2018-07-22T14:02:21.072Z,99151.00
2018-07-22T14:04:50.972Z,99152.00
2018-07-22T14:07:20.875Z,99150.00
2018-07-22T14:09:50.688Z,99148.00
2018-07-22T14:12:20.565Z,99143.00
2018-07-22T14:14:50.435Z,99147.00
2018-07-22T14:17:20.303Z,99150.00
2018-07-22T14:19:50.171Z,99155.00
2018-07-22T14:22:20.084Z,99166.00
2018-07-22T14:24:49.951Z,99175.00
2018-07-22T14:27:19.835Z,99184.00
2018-07-22T14:29:49.730Z,99193.00
2018-07-22T14:32:19.587Z,99191.00
2018-07-22T14:34:49.471Z,99192.00
2018-07-22T14:37:19.340Z,99206.00
2018-07-22T14:39:49.194Z,99200.00
2018-07-22T14:42:19.078Z,99188.00
2018-07-22T14:44:48.923Z,99204.00
2018-07-22T14:47:18.815Z,99208.00
2018-07-22T14:49:48.656Z,99205.00
2018-07-22T14:52:18.638Z,99205.00
2018-07-22T14:54:49.864Z,99201.00
2018-07-22T14:57:19.738Z,99200.00
2018-07-22T14:59:49.626Z,99201.00
2018-07-22T15:02:19.517Z,99204.00
2018-07-22T15:04:49.394Z,99206.00
2018-07-22T15:07:19.295Z,99211.00
2018-07-22T15:09:49.160Z,99208.00
2018-07-22T15:12:19.047Z,99211.00
2018-07-22T15:14:48.921Z,99213.00
2018-07-22T15:17:18.794Z,99213.00
2018-07-22T15:19:48.668Z,99209.00
2018-07-22T15:22:18.656Z,99207.00
2018-07-22T15:24:48.526Z,99203.00
2018-07-22T15:27:18.414Z,99205.00
2018-07-22T15:29:48.308Z,99208.00
2018-07-22T15:32:18.199Z,99207.00
2018-07-22T15:34:48.056Z,99207.00
2018-07-22T15:37:17.929Z,99209.00
2018-07-22T15:39:47.797Z,99218.00
2018-07-22T15:42:17.684Z,99216.00
2018-07-22T15:44:47.554Z,99212.00
2018-07-22T15:47:17.439Z,99215.00
2018-07-22T15:49:47.323Z,99215.00
2018-07-22T15:52:17.203Z,99209.00
2018-07-22T15:54:47.078Z,99212.00
2018-07-22T15:57:16.976Z,99208.00
2018-07-22T15:59:46.843Z,99207.00
2018-07-22T16:02:16.734Z,99211.00
2018-07-22T16:04:46.623Z,99205.00
2018-07-22T16:07:16.498Z,99203.00
2018-07-22T16:09:46.443Z,99214.00
2018-07-22T16:12:16.327Z,99215.00
2018-07-22T16:14:46.214Z,99213.00
2018-07-22T16:17:16.091Z,99213.00
2018-07-22T16:19:45.982Z,99219.00
2018-07-22T16:22:15.879Z,99222.00
2018-07-22T16:24:45.819Z,99223.00
2018-07-22T16:27:15.711Z,99216.00
2018-07-22T16:29:45.672Z,99220.00
2018-07-22T16:32:15.553Z,99223.00
2018-07-22T16:34:45.470Z,99228.00
2018-07-22T16:37:15.415Z,99228.00
2018-07-22T16:39:45.547Z,99230.00
2018-07-22T16:42:15.476Z,99232.00
2018-07-22T16:44:45.360Z,99228.00
2018-07-22T16:47:15.295Z,99234.00
2018-07-22T16:49:45.251Z,99232.00
2018-07-22T16:52:15.162Z,99237.00
2018-07-22T16:54:45.319Z,99239.00
2018-07-22T16:57:15.265Z,99251.00
2018-07-22T16:59:44.955Z,99247.00
2018-07-22T17:02:14.754Z,99251.00
2018-07-22T17:04:44.640Z,99254.00
2018-07-22T17:07:14.569Z,99256.00
2018-07-22T17:09:44.399Z,99251.00
2018-07-22T17:12:14.387Z,99255.00
2018-07-22T17:14:44.423Z,99258.00
2018-07-22T17:17:14.294Z,99256.00
2018-07-22T17:19:44.164Z,99256.00
2018-07-22T17:22:14.099Z,99247.00
2018-07-22T17:24:43.984Z,99252.00
2018-07-22T17:27:13.866Z,99254.00
2018-07-22T17:29:43.778Z,99256.00
2018-07-22T17:32:13.683Z,99253.00
2018-07-22T17:34:43.611Z,99254.00
2018-07-22T17:37:13.495Z,99258.00
2018-07-22T17:39:43.682Z,99260.00
2018-07-22T17:42:13.672Z,99263.00
2018-07-22T17:44:43.534Z,99260.00
2018-07-22T17:47:13.474Z,99261.00
2018-07-22T17:49:43.419Z,99257.00
2018-07-22T17:52:13.299Z,99261.00
2018-07-22T17:54:43.395Z,99259.00
2018-07-22T17:57:13.325Z,99256.00
2018-07-22T17:59:43.206Z,99256.00
2018-07-22T18:02:13.099Z,99253.00
2018-07-22T18:04:42.971Z,99255.00
2018-07-22T18:07:13.767Z,99256.00
2018-07-22T18:09:44.183Z,99255.00
2018-07-22T18:12:14.443Z,99259.00
2018-07-22T18:14:44.418Z,99263.00
2018-07-22T18:17:14.755Z,99266.00
2018-07-22T18:19:44.799Z,99267.00
2018-07-22T18:22:14.748Z,99261.00
2018-07-22T18:24:44.602Z,99259.00
2018-07-22T18:27:14.516Z,99265.00
2018-07-22T18:29:44.378Z,99262.00
2018-07-22T18:32:14.262Z,99262.00
2018-07-22T18:34:44.370Z,99259.00
2018-07-22T18:37:14.463Z,99257.00
2018-07-22T18:39:44.319Z,99259.00
2018-07-22T18:42:14.226Z,99269.00
2018-07-22T18:44:44.238Z,99263.00
2018-07-22T18:47:14.145Z,99272.00
2018-07-22T18:49:43.817Z,99272.00
2018-07-22T18:52:15.173Z,99275.00
2018-07-22T18:54:46.769Z,99277.00
2018-07-22T18:57:17.130Z,99275.00
2018-07-22T18:59:47.038Z,99281.00
2018-07-22T19:02:17.166Z,99293.00
2018-07-22T19:04:47.359Z,99293.00
2018-07-22T19:07:17.374Z,99298.00
2018-07-22T19:09:47.371Z,99291.00
2018-07-22T19:12:17.452Z,99294.00
2018-07-22T19:14:47.329Z,99296.00
2018-07-22T19:17:17.235Z,99304.00
2018-07-22T19:19:47.214Z,99307.00
2018-07-22T19:22:17.091Z,99310.00
2018-07-22T19:24:47.089Z,99310.00
2018-07-22T19:27:16.934Z,99312.00
2018-07-22T19:29:46.801Z,99315.00
2018-07-22T19:32:16.670Z,99318.00
2018-07-22T19:34:46.551Z,99321.00
2018-07-22T19:37:17.418Z,99324.00
2018-07-22T19:39:47.287Z,99329.00
2018-07-22T19:42:17.171Z,99337.00
2018-07-22T19:44:47.044Z,99339.00
2018-07-22T19:47:16.952Z,99338.00
2018-07-22T19:49:46.835Z,99334.00
2018-07-22T19:52:16.719Z,99336.00
2018-07-22T19:54:46.612Z,99337.00
2018-07-22T19:57:16.487Z,99340.00
2018-07-22T19:59:46.366Z,99344.00
2018-07-22T20:02:16.228Z,99347.00
2018-07-22T20:04:46.103Z,99350.00
2018-07-22T20:07:16.200Z,99354.00
2018-07-22T20:09:46.083Z,99356.00
2018-07-22T20:12:15.950Z,99360.00
2018-07-22T20:14:45.853Z,99360.00
2018-07-22T20:17:15.719Z,99365.00
2018-07-22T20:19:45.599Z,99365.00
2018-07-22T20:22:15.478Z,99369.00
2018-07-22T20:24:45.453Z,99373.00
2018-07-22T20:27:15.327Z,99376.00
2018-07-22T20:29:45.283Z,99376.00
2018-07-22T20:32:15.281Z,99369.00
2018-07-22T20:34:45.237Z,99371.00
2018-07-22T20:37:15.143Z,99378.00
2018-07-22T20:39:45.072Z,99383.00
2018-07-22T20:42:15.058Z,99382.00
2018-07-22T20:44:44.988Z,99376.00
2018-07-22T20:47:14.903Z,99381.00
2018-07-22T20:49:44.779Z,99387.00
2018-07-22T20:52:14.652Z,99387.00
2018-07-22T20:54:44.535Z,99390.00
2018-07-22T20:57:14.417Z,99388.00
2018-07-22T20:59:44.286Z,99388.00
2018-07-22T21:02:14.163Z,99380.00
2018-07-22T21:04:44.124Z,99385.00
2018-07-22T21:07:14.008Z,99389.00
2018-07-22T21:09:43.890Z,99388.00
2018-07-22T21:12:57.223Z,99395.00
2018-07-22T21:15:27.106Z,99395.00
2018-07-22T21:17:56.979Z,99399.00
2018-07-22T21:20:26.887Z,99401.00
2018-07-22T21:22:56.798Z,99399.00
2018-07-22T21:25:26.693Z,99403.00
2018-07-22T21:27:56.599Z,99400.00
2018-07-22T21:30:26.470Z,99405.00
2018-07-22T21:32:56.371Z,99405.00
2018-07-22T21:35:26.261Z,99402.00
2018-07-22T21:37:56.131Z,99405.00
2018-07-22T21:40:26.043Z,99407.00
2018-07-22T21:42:55.874Z,99409.00
2018-07-22T21:45:25.758Z,99409.00
2018-07-22T21:47:55.635Z,99410.00
2018-07-22T21:50:25.507Z,99409.00
2018-07-22T21:52:55.364Z,99411.00
2018-07-22T21:55:25.238Z,99407.00
2018-07-22T21:57:55.104Z,99414.00
2018-07-22T22:00:31.758Z,99407.00
2018-07-22T22:03:03.419Z,99406.00
2018-07-22T22:05:33.286Z,99408.00
2018-07-22T22:08:03.142Z,99407.00
2018-07-22T22:10:33.024Z,99416.00
2018-07-22T22:13:02.875Z,99413.00
2018-07-22T22:15:33.138Z,99418.00
2018-07-22T22:18:04.076Z,99420.00
2018-07-22T22:20:34.106Z,99422.00
2018-07-22T22:23:03.982Z,99420.00
2018-07-22T22:25:33.894Z,99419.00
2018-07-22T22:28:03.791Z,99419.00
2018-07-22T22:30:33.669Z,99414.00
2018-07-22T22:33:03.533Z,99417.00
2018-07-22T22:35:33.432Z,99416.00
2018-07-22T22:38:03.301Z,99421.00
2018-07-22T22:40:33.222Z,99420.00
2018-07-22T22:43:03.239Z,99421.00
2018-07-22T22:45:33.126Z,99417.00
2018-07-22T22:48:02.984Z,99420.00
2018-07-22T22:50:32.854Z,99419.00
2018-07-22T22:53:02.747Z,99423.00
2018-07-22T22:55:32.634Z,99421.00
2018-07-22T22:58:19.653Z,99427.00
2018-07-22T23:00:49.531Z,99433.00
2018-07-22T23:03:19.403Z,99428.00
2018-07-22T23:05:49.262Z,99433.00
2018-07-22T23:08:19.170Z,99431.00
2018-07-22T23:10:49.011Z,99430.00
2018-07-22T23:13:18.874Z,99424.00
2018-07-22T23:15:48.754Z,99424.00
2018-07-22T23:18:18.626Z,99425.00
2018-07-22T23:20:48.515Z,99423.00
2018-07-22T23:23:18.718Z,99430.00
2018-07-22T23:25:48.588Z,99423.00
2018-07-22T23:28:18.455Z,99424.00
2018-07-22T23:30:48.416Z,99429.00
2018-07-22T23:33:18.286Z,99434.00
2018-07-22T23:35:48.201Z,99440.00
2018-07-22T23:38:18.030Z,99433.00
2018-07-22T23:40:47.890Z,99434.00
2018-07-22T23:43:17.758Z,99435.00
2018-07-22T23:45:47.626Z,99436.00
2018-07-22T23:48:17.486Z,99439.00
2018-07-22T23:50:47.374Z,99440.00
2018-07-22T23:53:17.227Z,99441.00
2018-07-22T23:55:47.094Z,99438.00
2018-07-22T23:58:16.948Z,99439.00
